sensor_id;sensor_type;location;lat;lon;timestamp;pressure;altitude;pressure_sealevel;temperature;humidity
24788;BME280;12883;52.662;5.196;2023-02-19T00:00:51;101635.22;;;11.17;100.00
24788;BME280;12883;52.662;5.196;2023-02-19T00:03:16;101623.69;;;11.10;100.00
24788;BME280;12883;52.662;5.196;2023-02-19T00:05:41;101631.09;;;11.15;100.00
24788;BME280;12883;52.662;5.196;2023-02-19T00:08:07;101642.34;;;11.17;100.00
24788;BME280;12883;52.662;5.196;2023-02-19T00:10:32;101622.75;;;11.03;100.00
24788;BME280;12883;52.662;5.196;2023-02-19T00:12:57;101646.41;;;11.13;100.00
24788;BME280;12883;52.662;5.196;2023-02-19T00:15:23;101644.19;;;11.16;100.00
24788;BME280;12883;52.662;5.196;2023-02-19T00:17:49;101652.53;;;11.13;100.00
24788;BME280;12883;52.662;5.196;2023-02-19T00:20:14;101649.97;;;11.20;100.00
24788;BME280;12883;52.662;5.196;2023-02-19T00:22:40;101605.31;;;10.86;100.00
24788;BME280;12883;52.662;5.196;2023-02-19T00:25:05;101652.69;;;11.12;100.00
24788;BME280;12883;52.662;5.196;2023-02-19T00:27:31;101651.63;;;11.21;100.00
24788;BME280;12883;52.662;5.196;2023-02-19T00:29:56;101642.34;;;11.17;100.00
24788;BME280;12883;52.662;5.196;2023-02-19T00:32:22;101649.13;;;11.19;100.00
24788;BME280;12883;52.662;5.196;2023-02-19T00:34:47;101651.16;;;11.17;100.00
24788;BME280;12883;52.662;5.196;2023-02-19T00:37:13;101652.34;;;11.15;100.00
24788;BME280;12883;52.662;5.196;2023-02-19T00:39:38;101653.44;;;11.20;100.00
24788;BME280;12883;52.662;5.196;2023-02-19T00:42:03;101663.97;;;11.14;100.00
24788;BME280;12883;52.662;5.196;2023-02-19T00:44:29;101659.69;;;11.13;100.00
24788;BME280;12883;52.662;5.196;2023-02-19T00:46:54;101651.34;;;11.16;100.00
24788;BME280;12883;52.662;5.196;2023-02-19T00:49:21;101655.19;;;11.13;100.00
24788;BME280;12883;52.662;5.196;2023-02-19T00:51:48;101658.00;;;11.12;100.00
24788;BME280;12883;52.662;5.196;2023-02-19T00:54:14;101607.69;;;10.81;100.00
24788;BME280;12883;52.662;5.196;2023-02-19T00:56:39;101665.00;;;11.13;100.00
24788;BME280;12883;52.662;5.196;2023-02-19T00:59:05;101666.81;;;11.12;100.00
24788;BME280;12883;52.662;5.196;2023-02-19T01:01:30;101667.34;;;11.08;100.00
24788;BME280;12883;52.662;5.196;2023-02-19T01:03:55;101659.84;;;11.11;100.00
24788;BME280;12883;52.662;5.196;2023-02-19T01:06:21;101660.03;;;11.10;100.00
24788;BME280;12883;52.662;5.196;2023-02-19T01:08:47;101662.69;;;11.10;100.00
24788;BME280;12883;52.662;5.196;2023-02-19T01:11:12;101683.03;;;11.17;100.00
24788;BME280;12883;52.662;5.196;2023-02-19T01:13:38;101668.56;;;11.20;100.00
24788;BME280;12883;52.662;5.196;2023-02-19T01:16:06;101665.91;;;11.20;100.00
24788;BME280;12883;52.662;5.196;2023-02-19T01:18:31;101671.13;;;11.13;100.00
24788;BME280;12883;52.662;5.196;2023-02-19T01:20:57;101660.88;;;11.10;100.00
24788;BME280;12883;52.662;5.196;2023-02-19T01:23:23;101676.81;;;11.10;100.00
24788;BME280;12883;52.662;5.196;2023-02-19T01:25:48;101675.31;;;11.08;100.00
24788;BME280;12883;52.662;5.196;2023-02-19T01:28:13;101682.13;;;11.10;100.00
24788;BME280;12883;52.662;5.196;2023-02-19T01:30:39;101668.25;;;11.00;100.00
24788;BME280;12883;52.662;5.196;2023-02-19T01:33:05;101639.09;;;10.78;100.00
24788;BME280;12883;52.662;5.196;2023-02-19T01:35:32;101688.31;;;11.03;100.00
24788;BME280;12883;52.662;5.196;2023-02-19T01:37:57;101671.28;;;10.97;100.00
24788;BME280;12883;52.662;5.196;2023-02-19T01:40:23;101576.03;;;10.43;100.00
24788;BME280;12883;52.662;5.196;2023-02-19T01:42:49;101679.63;;;11.09;100.00
24788;BME280;12883;52.662;5.196;2023-02-19T01:45:21;101679.03;;;10.99;100.00
24788;BME280;12883;52.662;5.196;2023-02-19T01:47:53;101685.91;;;10.93;100.00
24788;BME280;12883;52.662;5.196;2023-02-19T01:50:20;101656.09;;;10.69;100.00
24788;BME280;12883;52.662;5.196;2023-02-19T01:52:45;101688.22;;;10.96;100.00
24788;BME280;12883;52.662;5.196;2023-02-19T01:55:12;101684.72;;;10.96;100.00
24788;BME280;12883;52.662;5.196;2023-02-19T01:57:42;101672.81;;;10.92;100.00
24788;BME280;12883;52.662;5.196;2023-02-19T02:00:11;101686.47;;;10.89;100.00
24788;BME280;12883;52.662;5.196;2023-02-19T02:02:40;101673.44;;;10.79;100.00
24788;BME280;12883;52.662;5.196;2023-02-19T02:05:10;101635.31;;;10.58;100.00
24788;BME280;12883;52.662;5.196;2023-02-19T02:07:38;101693.53;;;10.96;100.00
24788;BME280;12883;52.662;5.196;2023-02-19T02:10:22;101689.75;;;10.91;100.00
24788;BME280;12883;52.662;5.196;2023-02-19T02:12:48;101692.94;;;10.86;100.00
24788;BME280;12883;52.662;5.196;2023-02-19T02:15:15;101695.06;;;10.91;100.00
24788;BME280;12883;52.662;5.196;2023-02-19T02:17:55;101694.25;;;10.90;100.00
24788;BME280;12883;52.662;5.196;2023-02-19T02:20:52;101699.44;;;10.84;100.00
24788;BME280;12883;52.662;5.196;2023-02-19T02:23:39;101695.25;;;10.89;100.00
24788;BME280;12883;52.662;5.196;2023-02-19T02:26:24;101701.91;;;10.85;100.00
24788;BME280;12883;52.662;5.196;2023-02-19T02:31:38;101711.91;;;10.83;100.00
24788;BME280;12883;52.662;5.196;2023-02-19T02:34:18;101709.72;;;10.87;100.00
24788;BME280;12883;52.662;5.196;2023-02-19T02:36:48;101713.38;;;10.86;100.00
24788;BME280;12883;52.662;5.196;2023-02-19T02:39:19;101707.41;;;10.84;100.00
24788;BME280;12883;52.662;5.196;2023-02-19T02:41:50;101699.97;;;10.79;100.00
24788;BME280;12883;52.662;5.196;2023-02-19T02:44:39;101716.38;;;10.83;100.00
24788;BME280;12883;52.662;5.196;2023-02-19T02:47:06;101712.06;;;10.82;100.00
24788;BME280;12883;52.662;5.196;2023-02-19T02:49:53;101711.53;;;10.86;100.00
24788;BME280;12883;52.662;5.196;2023-02-19T02:52:30;101715.19;;;10.85;100.00
24788;BME280;12883;52.662;5.196;2023-02-19T02:55:15;101723.00;;;10.87;100.00
24788;BME280;12883;52.662;5.196;2023-02-19T02:57:40;101719.03;;;10.83;100.00
24788;BME280;12883;52.662;5.196;2023-02-19T03:00:06;101709.78;;;10.79;100.00
24788;BME280;12883;52.662;5.196;2023-02-19T03:02:32;101718.72;;;10.78;100.00
24788;BME280;12883;52.662;5.196;2023-02-19T03:05:08;101723.00;;;10.87;100.00
24788;BME280;12883;52.662;5.196;2023-02-19T03:10:57;101721.69;;;10.83;100.00
24788;BME280;12883;52.662;5.196;2023-02-19T03:13:46;101747.91;;;10.86;100.00
24788;BME280;12883;52.662;5.196;2023-02-19T03:16:32;101730.19;;;10.78;100.00
24788;BME280;12883;52.662;5.196;2023-02-19T03:19:19;101716.97;;;10.70;100.00
24788;BME280;12883;52.662;5.196;2023-02-19T03:24:32;101742.44;;;10.79;100.00
24788;BME280;12883;52.662;5.196;2023-02-19T03:27:19;101714.25;;;10.56;100.00
24788;BME280;12883;52.662;5.196;2023-02-19T03:29:47;101746.19;;;10.70;100.00
24788;BME280;12883;52.662;5.196;2023-02-19T03:32:45;101743.16;;;10.73;100.00
24788;BME280;12883;52.662;5.196;2023-02-19T03:35:14;101733.84;;;10.77;100.00
24788;BME280;12883;52.662;5.196;2023-02-19T03:37:52;101757.28;;;10.74;100.00
24788;BME280;12883;52.662;5.196;2023-02-19T03:40:20;101729.00;;;10.58;100.00
24788;BME280;12883;52.662;5.196;2023-02-19T03:45:32;101755.31;;;10.68;100.00
24788;BME280;12883;52.662;5.196;2023-02-19T03:50:35;101743.44;;;10.56;100.00
24788;BME280;12883;52.662;5.196;2023-02-19T03:53:12;101756.56;;;10.57;100.00
24788;BME280;12883;52.662;5.196;2023-02-19T03:58:18;101784.88;;;10.65;100.00
24788;BME280;12883;52.662;5.196;2023-02-19T04:00:56;101786.31;;;10.67;100.00
24788;BME280;12883;52.662;5.196;2023-02-19T04:03:36;101788.03;;;10.60;100.00
24788;BME280;12883;52.662;5.196;2023-02-19T04:06:09;101792.16;;;10.63;100.00
24788;BME280;12883;52.662;5.196;2023-02-19T04:08:38;101794.19;;;10.61;100.00
24788;BME280;12883;52.662;5.196;2023-02-19T04:11:05;101793.16;;;10.62;100.00
24788;BME280;12883;52.662;5.196;2023-02-19T04:13:45;101800.13;;;10.63;100.00
24788;BME280;12883;52.662;5.196;2023-02-19T04:16:19;101793.91;;;10.48;100.00
24788;BME280;12883;52.662;5.196;2023-02-19T04:18:49;101794.06;;;10.54;100.00
24788;BME280;12883;52.662;5.196;2023-02-19T04:21:17;101805.81;;;10.60;100.00
24788;BME280;12883;52.662;5.196;2023-02-19T04:23:44;101800.41;;;10.45;100.00
24788;BME280;12883;52.662;5.196;2023-02-19T04:26:11;101803.19;;;10.52;100.00
24788;BME280;12883;52.662;5.196;2023-02-19T04:28:38;101781.91;;;10.29;100.00
24788;BME280;12883;52.662;5.196;2023-02-19T04:31:04;101821.09;;;10.58;100.00
24788;BME280;12883;52.662;5.196;2023-02-19T04:33:29;101829.75;;;10.52;100.00
24788;BME280;12883;52.662;5.196;2023-02-19T04:35:55;101837.03;;;10.50;100.00
24788;BME280;12883;52.662;5.196;2023-02-19T04:38:20;101841.16;;;10.52;100.00
24788;BME280;12883;52.662;5.196;2023-02-19T04:40:46;101826.94;;;10.45;100.00
24788;BME280;12883;52.662;5.196;2023-02-19T04:43:11;101805.97;;;10.28;100.00
24788;BME280;12883;52.662;5.196;2023-02-19T04:45:37;101839.66;;;10.58;100.00
24788;BME280;12883;52.662;5.196;2023-02-19T04:48:03;101849.59;;;10.56;100.00
24788;BME280;12883;52.662;5.196;2023-02-19T04:50:28;101843.16;;;10.50;100.00
24788;BME280;12883;52.662;5.196;2023-02-19T04:52:53;101841.03;;;10.46;100.00
24788;BME280;12883;52.662;5.196;2023-02-19T04:55:19;101851.66;;;10.46;100.00
24788;BME280;12883;52.662;5.196;2023-02-19T04:57:44;101842.38;;;10.42;100.00
24788;BME280;12883;52.662;5.196;2023-02-19T05:00:10;101862.91;;;10.48;100.00
24788;BME280;12883;52.662;5.196;2023-02-19T05:02:36;101862.91;;;10.48;100.00
24788;BME280;12883;52.662;5.196;2023-02-19T05:05:01;101872.22;;;10.44;100.00
24788;BME280;12883;52.662;5.196;2023-02-19T05:07:27;101866.94;;;10.44;100.00
24788;BME280;12883;52.662;5.196;2023-02-19T05:09:52;101885.81;;;10.41;100.00
24788;BME280;12883;52.662;5.196;2023-02-19T05:12:18;101878.19;;;10.46;100.00
24788;BME280;12883;52.662;5.196;2023-02-19T05:14:43;101876.06;;;10.41;100.00
24788;BME280;12883;52.662;5.196;2023-02-19T05:17:08;101873.25;;;10.35;100.00
24788;BME280;12883;52.662;5.196;2023-02-19T05:19:34;101875.22;;;10.41;100.00
24788;BME280;12883;52.662;5.196;2023-02-19T05:21:59;101898.78;;;10.36;100.00
24788;BME280;12883;52.662;5.196;2023-02-19T05:24:24;101888.16;;;10.36;100.00
24788;BME280;12883;52.662;5.196;2023-02-19T05:26:51;101898.44;;;10.39;100.00
24788;BME280;12883;52.662;5.196;2023-02-19T05:29:16;101892.97;;;10.32;100.00
24788;BME280;12883;52.662;5.196;2023-02-19T05:31:42;101885.84;;;10.33;100.00
24788;BME280;12883;52.662;5.196;2023-02-19T05:34:07;101893.81;;;10.33;100.00
24788;BME280;12883;52.662;5.196;2023-02-19T05:36:33;101901.78;;;10.33;100.00
24788;BME280;12883;52.662;5.196;2023-02-19T05:38:58;101902.78;;;10.32;100.00
24788;BME280;12883;52.662;5.196;2023-02-19T05:41:25;101908.09;;;10.32;100.00
24788;BME280;12883;52.662;5.196;2023-02-19T05:43:52;101887.25;;;10.13;100.00
24788;BME280;12883;52.662;5.196;2023-02-19T05:46:20;101891.03;;;10.18;100.00
24788;BME280;12883;52.662;5.196;2023-02-19T05:48:47;101911.91;;;10.29;100.00
24788;BME280;12883;52.662;5.196;2023-02-19T05:51:14;101920.34;;;10.33;100.00
24788;BME280;12883;52.662;5.196;2023-02-19T05:53:41;101926.97;;;10.29;100.00
24788;BME280;12883;52.662;5.196;2023-02-19T05:58:54;101904.00;;;10.05;100.00
24788;BME280;12883;52.662;5.196;2023-02-19T06:01:21;101940.59;;;10.26;100.00
24788;BME280;12883;52.662;5.196;2023-02-19T06:03:47;101934.31;;;10.19;100.00
24788;BME280;12883;52.662;5.196;2023-02-19T06:06:13;101950.84;;;10.29;100.00
24788;BME280;12883;52.662;5.196;2023-02-19T06:08:39;101954.84;;;10.25;100.00
24788;BME280;12883;52.662;5.196;2023-02-19T06:11:04;101957.50;;;10.25;100.00
24788;BME280;12883;52.662;5.196;2023-02-19T06:13:30;101953.22;;;10.24;100.00
24788;BME280;12883;52.662;5.196;2023-02-19T06:15:55;101960.00;;;10.18;100.00
24788;BME280;12883;52.662;5.196;2023-02-19T06:18:21;101956.19;;;10.21;100.00
24788;BME280;12883;52.662;5.196;2023-02-19T06:20:46;101969.78;;;10.18;100.00
24788;BME280;12883;52.662;5.196;2023-02-19T06:23:11;101961.16;;;10.16;100.00
24788;BME280;12883;52.662;5.196;2023-02-19T06:25:37;101969.94;;;10.16;100.00
24788;BME280;12883;52.662;5.196;2023-02-19T06:28:02;101965.66;;;10.15;100.00
24788;BME280;12883;52.662;5.196;2023-02-19T06:30:28;101977.06;;;10.16;100.00
24788;BME280;12883;52.662;5.196;2023-02-19T06:32:54;101988.69;;;10.15;100.00
24788;BME280;12883;52.662;5.196;2023-02-19T06:35:19;101977.56;;;9.95;100.00
24788;BME280;12883;52.662;5.196;2023-02-19T06:37:48;101999.28;;;10.07;100.00
24788;BME280;12883;52.662;5.196;2023-02-19T06:40:14;101989.31;;;10.01;100.00
24788;BME280;12883;52.662;5.196;2023-02-19T06:42:39;102004.75;;;9.89;100.00
24788;BME280;12883;52.662;5.196;2023-02-19T06:45:05;102010.88;;;9.82;100.00
24788;BME280;12883;52.662;5.196;2023-02-19T06:47:31;102021.28;;;9.75;100.00
24788;BME280;12883;52.662;5.196;2023-02-19T06:49:57;102017.34;;;9.71;100.00
24788;BME280;12883;52.662;5.196;2023-02-19T06:52:23;102011.84;;;9.65;100.00
24788;BME280;12883;52.662;5.196;2023-02-19T06:54:48;102013.00;;;9.62;100.00
24788;BME280;12883;52.662;5.196;2023-02-19T06:57:13;102028.91;;;9.62;100.00
24788;BME280;12883;52.662;5.196;2023-02-19T06:59:39;102039.69;;;9.61;100.00
24788;BME280;12883;52.662;5.196;2023-02-19T07:02:04;102038.81;;;9.45;100.00
24788;BME280;12883;52.662;5.196;2023-02-19T07:04:30;102057.38;;;9.52;100.00
24788;BME280;12883;52.662;5.196;2023-02-19T07:06:55;102062.16;;;9.49;100.00
24788;BME280;12883;52.662;5.196;2023-02-19T07:09:20;102064.47;;;9.44;100.00
24788;BME280;12883;52.662;5.196;2023-02-19T07:11:47;102069.44;;;9.47;100.00
24788;BME280;12883;52.662;5.196;2023-02-19T07:14:14;102063.81;;;9.42;100.00
24788;BME280;12883;52.662;5.196;2023-02-19T07:16:40;102079.66;;;9.34;100.00
24788;BME280;12883;52.662;5.196;2023-02-19T07:19:06;102040.19;;;9.15;100.00
24788;BME280;12883;52.662;5.196;2023-02-19T07:21:31;102090.44;;;9.41;100.00
24788;BME280;12883;52.662;5.196;2023-02-19T07:24:02;102096.00;;;9.30;100.00
24788;BME280;12883;52.662;5.196;2023-02-19T07:26:27;102094.22;;;9.30;100.00
24788;BME280;12883;52.662;5.196;2023-02-19T07:28:53;102102.31;;;9.29;100.00
24788;BME280;12883;52.662;5.196;2023-02-19T07:31:20;102104.44;;;9.25;100.00
24788;BME280;12883;52.662;5.196;2023-02-19T07:33:46;102109.69;;;9.17;100.00
24788;BME280;12883;52.662;5.196;2023-02-19T07:36:13;102108.38;;;9.13;100.00
24788;BME280;12883;52.662;5.196;2023-02-19T07:38:38;102119.63;;;9.15;100.00
24788;BME280;12883;52.662;5.196;2023-02-19T07:41:05;102124.56;;;9.10;100.00
24788;BME280;12883;52.662;5.196;2023-02-19T07:43:32;102123.38;;;9.05;100.00
24788;BME280;12883;52.662;5.196;2023-02-19T07:46:00;102123.22;;;9.06;100.00
24788;BME280;12883;52.662;5.196;2023-02-19T07:48:26;102140.31;;;9.12;100.00
24788;BME280;12883;52.662;5.196;2023-02-19T07:53:17;102142.63;;;9.15;100.00
24788;BME280;12883;52.662;5.196;2023-02-19T07:55:43;102136.09;;;9.01;100.00
24788;BME280;12883;52.662;5.196;2023-02-19T07:58:08;102149.19;;;9.03;100.00
24788;BME280;12883;52.662;5.196;2023-02-19T08:00:34;102160.31;;;9.06;100.00
24788;BME280;12883;52.662;5.196;2023-02-19T08:02:59;102160.59;;;9.03;100.00
24788;BME280;12883;52.662;5.196;2023-02-19T08:05:29;102171.22;;;9.11;100.00
24788;BME280;12883;52.662;5.196;2023-02-19T08:07:54;102145.66;;;8.94;100.00
24788;BME280;12883;52.662;5.196;2023-02-19T08:10:20;102187.72;;;9.05;100.00
24788;BME280;12883;52.662;5.196;2023-02-19T08:13:04;102194.63;;;8.98;100.00
24788;BME280;12883;52.662;5.196;2023-02-19T08:15:54;102203.94;;;9.02;100.00
24788;BME280;12883;52.662;5.196;2023-02-19T08:18:23;102197.97;;;9.00;100.00
24788;BME280;12883;52.662;5.196;2023-02-19T08:20:48;102165.03;;;8.77;100.00
24788;BME280;12883;52.662;5.196;2023-02-19T08:23:14;102214.13;;;9.15;100.00
24788;BME280;12883;52.662;5.196;2023-02-19T08:25:40;102201.19;;;9.12;100.00
24788;BME280;12883;52.662;5.196;2023-02-19T08:28:08;102208.66;;;9.16;100.00
24788;BME280;12883;52.662;5.196;2023-02-19T08:30:35;102215.09;;;9.14;100.00
24788;BME280;12883;52.662;5.196;2023-02-19T08:33:02;102215.94;;;9.14;100.00
24788;BME280;12883;52.662;5.196;2023-02-19T08:35:28;102208.66;;;9.16;100.00
24788;BME280;12883;52.662;5.196;2023-02-19T08:37:57;102219.63;;;9.21;100.00
24788;BME280;12883;52.662;5.196;2023-02-19T08:40:24;102224.22;;;9.19;100.00
24788;BME280;12883;52.662;5.196;2023-02-19T08:42:50;102237.84;;;9.24;100.00
24788;BME280;12883;52.662;5.196;2023-02-19T08:45:16;102221.00;;;9.08;100.00
24788;BME280;12883;52.662;5.196;2023-02-19T08:47:41;102203.50;;;8.89;100.00
24788;BME280;12883;52.662;5.196;2023-02-19T08:50:07;102241.13;;;9.18;100.00
24788;BME280;12883;52.662;5.196;2023-02-19T08:52:33;102239.94;;;9.13;100.00
24788;BME280;12883;52.662;5.196;2023-02-19T08:54:59;102249.91;;;9.19;100.00
24788;BME280;12883;52.662;5.196;2023-02-19T08:57:25;102261.06;;;9.05;100.00
24788;BME280;12883;52.662;5.196;2023-02-19T08:59:53;102262.84;;;9.04;100.00
24788;BME280;12883;52.662;5.196;2023-02-19T09:02:19;102263.09;;;9.11;100.00
24788;BME280;12883;52.662;5.196;2023-02-19T09:04:44;102271.38;;;9.16;100.00
24788;BME280;12883;52.662;5.196;2023-02-19T09:07:11;102285.59;;;9.15;100.00
24788;BME280;12883;52.662;5.196;2023-02-19T09:09:36;102285.00;;;9.21;100.00
24788;BME280;12883;52.662;5.196;2023-02-19T09:12:06;102296.13;;;9.24;100.00
24788;BME280;12883;52.662;5.196;2023-02-19T09:14:33;102315.81;;;9.04;100.00
24788;BME280;12883;52.662;5.196;2023-02-19T09:16:59;102264.66;;;8.61;100.00
24788;BME280;12883;52.662;5.196;2023-02-19T09:19:26;102330.88;;;9.04;100.00
24788;BME280;12883;52.662;5.196;2023-02-19T09:21:51;102340.16;;;8.90;100.00
24788;BME280;12883;52.662;5.196;2023-02-19T09:24:17;102344.13;;;8.86;100.00
24788;BME280;12883;52.662;5.196;2023-02-19T09:26:42;102337.84;;;8.87;100.00
24788;BME280;12883;52.662;5.196;2023-02-19T09:29:08;102349.47;;;8.94;100.00
24788;BME280;12883;52.662;5.196;2023-02-19T09:31:33;102359.63;;;8.99;100.00
24788;BME280;12883;52.662;5.196;2023-02-19T09:33:59;102312.63;;;8.83;100.00
24788;BME280;12883;52.662;5.196;2023-02-19T09:36:25;102352.06;;;9.04;100.00
24788;BME280;12883;52.662;5.196;2023-02-19T09:38:50;102357.72;;;9.09;100.00
24788;BME280;12883;52.662;5.196;2023-02-19T09:41:23;102350.94;;;9.06;100.00
24788;BME280;12883;52.662;5.196;2023-02-19T09:43:50;102351.53;;;9.18;100.00
24788;BME280;12883;52.662;5.196;2023-02-19T09:46:41;102358.16;;;9.04;100.00
24788;BME280;12883;52.662;5.196;2023-02-19T09:49:13;102297.13;;;8.53;100.00
24788;BME280;12883;52.662;5.196;2023-02-19T09:51:44;102388.28;;;9.03;100.00
24788;BME280;12883;52.662;5.196;2023-02-19T09:54:20;102381.19;;;9.04;100.00
24788;BME280;12883;52.662;5.196;2023-02-19T09:56:47;102394.63;;;9.10;100.00
24788;BME280;12883;52.662;5.196;2023-02-19T09:59:36;102414.63;;;9.22;100.00
24788;BME280;12883;52.662;5.196;2023-02-19T10:02:20;102364.75;;;8.83;100.00
24788;BME280;12883;52.662;5.196;2023-02-19T10:04:47;102426.50;;;9.18;100.00
24788;BME280;12883;52.662;5.196;2023-02-19T10:07:20;102439.19;;;9.15;100.00
24788;BME280;12883;52.662;5.196;2023-02-19T10:12:43;102456.16;;;9.22;100.00
24788;BME280;12883;52.662;5.196;2023-02-19T10:15:15;102461.16;;;9.25;100.00
24788;BME280;12883;52.662;5.196;2023-02-19T10:17:42;102444.91;;;9.37;100.00
24788;BME280;12883;52.662;5.196;2023-02-19T10:20:14;102453.81;;;9.19;100.00
24788;BME280;12883;52.662;5.196;2023-02-19T10:22:40;102451.03;;;9.20;100.00
24788;BME280;12883;52.662;5.196;2023-02-19T10:25:05;102456.41;;;9.28;100.00
24788;BME280;12883;52.662;5.196;2023-02-19T10:27:31;102457.28;;;9.37;100.00
24788;BME280;12883;52.662;5.196;2023-02-19T10:29:57;102462.91;;;9.34;100.00
24788;BME280;12883;52.662;5.196;2023-02-19T10:32:25;102473.66;;;9.32;100.00
24788;BME280;12883;52.662;5.196;2023-02-19T10:35:10;102464.28;;;9.38;100.00
24788;BME280;12883;52.662;5.196;2023-02-19T10:37:45;102466.16;;;9.28;100.00
24788;BME280;12883;52.662;5.196;2023-02-19T10:40:15;102462.75;;;9.35;100.00
24788;BME280;12883;52.662;5.196;2023-02-19T10:42:45;102441.38;;;9.19;100.00
24788;BME280;12883;52.662;5.196;2023-02-19T10:45:21;102470.91;;;9.24;100.00
24788;BME280;12883;52.662;5.196;2023-02-19T10:47:48;102463.28;;;9.21;100.00
24788;BME280;12883;52.662;5.196;2023-02-19T10:50:34;102456.09;;;9.31;100.00
24788;BME280;12883;52.662;5.196;2023-02-19T10:53:03;102454.56;;;9.29;100.00
24788;BME280;12883;52.662;5.196;2023-02-19T10:55:34;102455.34;;;9.21;100.00
24788;BME280;12883;52.662;5.196;2023-02-19T10:58:25;102483.56;;;9.48;100.00
24788;BME280;12883;52.662;5.196;2023-02-19T11:03:44;102498.03;;;9.36;100.00
24788;BME280;12883;52.662;5.196;2023-02-19T11:06:12;102496.81;;;9.30;100.00
24788;BME280;12883;52.662;5.196;2023-02-19T11:08:50;102513.84;;;9.45;100.00
24788;BME280;12883;52.662;5.196;2023-02-19T11:13:57;102531.19;;;9.57;100.00
24788;BME280;12883;52.662;5.196;2023-02-19T11:16:36;102510.31;;;9.71;100.00
24788;BME280;12883;52.662;5.196;2023-02-19T11:19:02;102500.25;;;9.57;100.00
24788;BME280;12883;52.662;5.196;2023-02-19T11:21:29;102525.00;;;9.66;100.00
24788;BME280;12883;52.662;5.196;2023-02-19T11:23:59;102509.16;;;9.56;100.00
24788;BME280;12883;52.662;5.196;2023-02-19T11:26:32;102511.59;;;9.67;100.00
24788;BME280;12883;52.662;5.196;2023-02-19T11:29:15;102513.66;;;9.73;100.00
24788;BME280;12883;52.662;5.196;2023-02-19T11:31:43;102516.22;;;9.65;100.00
24788;BME280;12883;52.662;5.196;2023-02-19T11:36:38;102506.69;;;9.55;100.00
24788;BME280;12883;52.662;5.196;2023-02-19T11:39:18;102502.78;;;9.49;100.00
24788;BME280;12883;52.662;5.196;2023-02-19T11:44:31;102498.72;;;9.55;100.00
24788;BME280;12883;52.662;5.196;2023-02-19T11:48:03;102515.09;;;9.68;100.00
24788;BME280;12883;52.662;5.196;2023-02-19T11:50:23;102523.78;;;9.78;100.00
24788;BME280;12883;52.662;5.196;2023-02-19T11:53:19;102513.41;;;9.84;100.00
24788;BME280;12883;52.662;5.196;2023-02-19T11:55:58;102515.16;;;9.76;100.00
24788;BME280;12883;52.662;5.196;2023-02-19T11:58:58;102515.28;;;9.92;100.00
24788;BME280;12883;52.662;5.196;2023-02-19T12:07:24;102526.44;;;9.78;100.00
24788;BME280;12883;52.662;5.196;2023-02-19T12:10:20;102526.44;;;9.95;100.00
24788;BME280;12883;52.662;5.196;2023-02-19T12:29:00;102534.19;;;10.06;100.00
24788;BME280;12883;52.662;5.196;2023-02-19T12:34:28;102553.63;;;9.97;100.00
24788;BME280;12883;52.662;5.196;2023-02-19T12:42:53;102555.00;;;10.01;100.00
24788;BME280;12883;52.662;5.196;2023-02-19T12:50:39;102565.28;;;10.22;100.00
24788;BME280;12883;52.662;5.196;2023-02-19T12:53:12;102525.28;;;9.98;100.00
24788;BME280;12883;52.662;5.196;2023-02-19T12:55:43;102578.84;;;10.36;100.00
24788;BME280;12883;52.662;5.196;2023-02-19T12:58:47;102592.53;;;10.24;100.00
24788;BME280;12883;52.662;5.196;2023-02-19T13:01:15;102557.88;;;10.08;100.00
24788;BME280;12883;52.662;5.196;2023-02-19T13:04:21;102583.31;;;10.36;100.00
24788;BME280;12883;52.662;5.196;2023-02-19T13:06:56;102584.78;;;10.30;100.00
24788;BME280;12883;52.662;5.196;2023-02-19T13:09:38;102575.47;;;10.26;100.00
24788;BME280;12883;52.662;5.196;2023-02-19T13:14:44;102576.94;;;10.29;100.00
24788;BME280;12883;52.662;5.196;2023-02-19T13:17:33;102583.31;;;10.36;100.00
24788;BME280;12883;52.662;5.196;2023-02-19T13:20:12;102589.09;;;10.31;100.00
24788;BME280;12883;52.662;5.196;2023-02-19T13:22:43;102589.03;;;10.23;100.00
24788;BME280;12883;52.662;5.196;2023-02-19T13:26:07;102589.69;;;10.25;100.00
24788;BME280;12883;52.662;5.196;2023-02-19T13:36:57;102593.88;;;10.28;100.00
24788;BME280;12883;52.662;5.196;2023-02-19T13:39:23;102612.16;;;10.31;100.00
24788;BME280;12883;52.662;5.196;2023-02-19T13:41:51;102560.50;;;9.90;100.00
24788;BME280;12883;52.662;5.196;2023-02-19T13:44:24;102622.44;;;10.34;100.00
24788;BME280;12883;52.662;5.196;2023-02-19T13:46:51;102616.47;;;10.32;100.00
24788;BME280;12883;52.662;5.196;2023-02-19T13:52:00;102615.03;;;10.20;100.00
24788;BME280;12883;52.662;5.196;2023-02-19T13:54:27;102616.16;;;10.17;100.00
24788;BME280;12883;52.662;5.196;2023-02-19T13:59:50;102585.97;;;9.83;100.00
24788;BME280;12883;52.662;5.196;2023-02-19T14:27:52;102541.59;;;9.85;100.00
24788;BME280;12883;52.662;5.196;2023-02-19T14:30:20;102545.13;;;9.94;100.00
24788;BME280;12883;52.662;5.196;2023-02-19T14:32:47;102555.06;;;9.92;100.00
24788;BME280;12883;52.662;5.196;2023-02-19T14:35:21;102542.19;;;9.97;100.00
24788;BME280;12883;52.662;5.196;2023-02-19T14:37:48;102522.81;;;9.79;100.00
24788;BME280;12883;52.662;5.196;2023-02-19T14:40:26;102540.88;;;10.01;100.00
24788;BME280;12883;52.662;5.196;2023-02-19T14:42:54;102550.09;;;9.89;100.00
24788;BME280;12883;52.662;5.196;2023-02-19T14:45:22;102550.38;;;9.86;100.00
24788;BME280;12883;52.662;5.196;2023-02-19T14:47:50;102546.59;;;9.88;100.00
24788;BME280;12883;52.662;5.196;2023-02-19T14:50:29;102551.88;;;9.88;100.00
24788;BME280;12883;52.662;5.196;2023-02-19T14:53:02;102552.56;;;9.90;100.00